Time;durP1;ratioP1;P1;durP2;ratioP2;P2;SDS_P1;SDS_P2;PMS_P1;PMS_P2;Temp;Humidity;BMP_temperature;BMP_pressure;BME280_temperature;BME280_humidity;BME280_pressure;Samples;Min_cycle;Max_cycle;Signal;HPM_P1;HPM_P2
2022/03/29 00:02:06;;;;;;;20.92;15.82;;;7.20;99.90;;;;;;5067525;28;20044;-81
2022/03/29 00:04:32;;;;;;;22.65;15.77;;;7.20;99.90;;;;;;5069878;28;20535;-81
2022/03/29 00:06:57;;;;;;;22.50;15.68;;;7.20;99.90;;;;;;5067909;28;20536;-82
2022/03/29 00:09:23;;;;;;;21.40;15.73;;;7.20;99.90;;;;;;5068674;28;20532;-80
2022/03/29 00:11:49;;;;;;;25.88;15.73;;;7.20;99.90;;;;;;5068729;28;20037;-80
2022/03/29 00:14:15;;;;;;;22.95;16.67;;;7.20;99.90;;;;;;5067612;28;20248;-81
2022/03/29 00:16:41;;;;;;;22.98;15.75;;;7.20;99.90;;;;;;5067735;28;20041;-81
2022/03/29 00:19:07;;;;;;;18.77;14.95;;;7.20;99.90;;;;;;5067324;28;20053;-80
2022/03/29 00:21:33;;;;;;;20.50;15.32;;;7.30;99.90;;;;;;5069124;28;20032;-81
2022/03/29 00:23:59;;;;;;;22.42;15.88;;;7.20;99.90;;;;;;5067619;28;20067;-81
2022/03/29 00:26:25;;;;;;;20.95;16.30;;;6.90;99.90;;;;;;5051568;28;20492;-81
2022/03/29 00:28:50;;;;;;;25.52;15.95;;;7.30;99.90;;;;;;5049840;28;20063;-80
2022/03/29 00:31:19;;;;;;;25.27;16.27;;;7.20;99.90;;;;;;5067261;28;20044;-81
2022/03/29 00:33:48;;;;;;;22.35;16.27;;;7.20;99.90;;;;;;5068223;28;20056;-81
2022/03/29 00:36:14;;;;;;;20.80;17.17;;;7.20;99.90;;;;;;5066675;28;20052;-81
2022/03/29 00:38:41;;;;;;;22.00;15.35;;;7.20;99.90;;;;;;5067620;28;20443;-81
2022/03/29 00:41:06;;;;;;;25.38;16.70;;;8.20;99.90;;;;;;5066316;28;20040;-80
2022/03/29 00:43:32;;;;;;;26.98;15.93;;;7.20;99.90;;;;;;5067855;28;20381;-82
2022/03/29 00:45:58;;;;;;;21.60;16.83;;;7.20;99.90;;;;;;5050488;28;20036;-80
2022/03/29 00:48:23;;;;;;;21.60;16.23;;;7.20;99.90;;;;;;5069014;28;20105;-81
2022/03/29 00:50:50;;;;;;;23.00;16.42;;;7.30;99.90;;;;;;5067227;28;20041;-81
2022/03/29 00:53:18;;;;;;;23.50;16.77;;;7.30;99.90;;;;;;5068156;28;20036;-81
2022/03/29 00:55:45;;;;;;;22.20;16.25;;;7.40;99.90;;;;;;5068367;28;20048;-81
2022/03/29 00:58:12;;;;;;;23.88;15.90;;;7.30;99.90;;;;;;5068242;28;20047;-80
2022/03/29 01:00:38;;;;;;;22.77;17.15;;;7.30;99.90;;;;;;5068040;28;20045;-81
2022/03/29 01:03:04;;;;;;;22.55;15.40;;;7.30;99.90;;;;;;5066360;28;20040;-82
2022/03/29 01:05:31;;;;;;;26.98;15.27;;;7.30;99.90;;;;;;5066235;28;20088;-81
2022/03/29 01:08:00;;;;;;;21.55;15.30;;;7.30;99.90;;;;;;5065081;28;20070;-79
2022/03/29 01:10:26;;;;;;;20.83;15.10;;;7.40;99.90;;;;;;5067218;28;20064;-81
2022/03/29 01:12:54;;;;;;;24.60;15.60;;;7.10;99.90;;;;;;5049524;28;20036;-80
2022/03/29 01:15:22;;;;;;;22.05;15.85;;;7.40;99.90;;;;;;5067989;28;20388;-80
2022/03/29 01:17:49;;;;;;;22.83;15.15;;;7.40;99.90;;;;;;5066402;28;20076;-81
2022/03/29 01:20:24;;;;;;;22.88;16.13;;;7.40;99.90;;;;;;5066298;28;20040;-80
2022/03/29 01:22:52;;;;;;;25.42;15.68;;;7.40;99.90;;;;;;5067326;28;20388;-81
2022/03/29 01:25:34;;;;;;;22.92;15.05;;;7.40;99.90;;;;;;5049401;28;20029;-81
2022/03/29 01:28:02;;;;;;;22.63;14.55;;;7.40;99.90;;;;;;5067802;28;20048;-82
2022/03/29 01:30:27;;;;;;;23.67;15.63;;;7.40;99.90;;;;;;5067028;28;20032;-82
2022/03/29 01:32:54;;;;;;;24.40;14.30;;;7.40;99.90;;;;;;5048444;28;20044;-80
2022/03/29 01:35:24;;;;;;;24.40;14.63;;;7.30;99.90;;;;;;5067949;28;20078;-81
2022/03/29 01:37:51;;;;;;;27.08;16.20;;;8.20;99.90;;;;;;5065995;28;20232;-80
2022/03/29 01:40:22;;;;;;;23.23;14.02;;;7.40;99.90;;;;;;5067191;28;20476;-81
2022/03/29 01:43:00;;;;;;;20.42;14.55;;;7.40;99.90;;;;;;5065740;28;20032;-80
2022/03/29 01:45:29;;;;;;;29.65;16.25;;;7.30;99.90;;;;;;5059358;28;20044;-81
2022/03/29 01:47:54;;;;;;;23.23;15.77;;;7.40;99.90;;;;;;5065651;28;20037;-82
2022/03/29 01:50:21;;;;;;;19.58;15.75;;;7.40;99.90;;;;;;5067805;28;20044;-80
2022/03/29 01:52:47;;;;;;;22.95;15.15;;;7.40;99.90;;;;;;5067300;28;20076;-81
2022/03/29 01:55:16;;;;;;;19.98;15.88;;;7.30;99.90;;;;;;5066127;28;20055;-81
2022/03/29 01:57:42;;;;;;;20.42;13.77;;;7.20;99.90;;;;;;5066135;28;20036;-81
2022/03/29 02:02:57;;;;;;;22.88;14.98;;;7.30;99.90;;;;;;5066131;28;20084;-81
2022/03/29 02:05:23;;;;;;;20.13;14.48;;;7.20;99.90;;;;;;5049618;28;20576;-81
2022/03/29 02:07:50;;;;;;;20.67;14.65;;;7.20;99.90;;;;;;5065203;28;20332;-82
2022/03/29 02:10:17;;;;;;;28.63;15.20;;;7.20;99.90;;;;;;5065844;28;20048;-81
2022/03/29 02:12:43;;;;;;;21.90;15.43;;;7.20;99.90;;;;;;5066914;28;20049;-81
2022/03/29 02:15:09;;;;;;;23.13;15.48;;;8.50;99.90;;;;;;5065554;28;20077;-81
2022/03/29 02:17:35;;;;;;;18.33;14.05;;;7.10;99.90;;;;;;5049674;28;20025;-81
2022/03/29 02:20:02;;;;;;;23.98;14.55;;;7.10;99.90;;;;;;5065414;28;20241;-81
2022/03/29 02:22:27;;;;;;;23.08;15.32;;;7.10;99.90;;;;;;5066792;28;20044;-81
2022/03/29 02:24:53;;;;;;;22.27;14.77;;;7.10;99.90;;;;;;5067282;28;20099;-81
2022/03/29 02:27:18;;;;;;;22.23;15.38;;;7.10;99.90;;;;;;5067379;28;20040;-81
2022/03/29 02:29:44;;;;;;;23.05;15.15;;;7.10;99.90;;;;;;5066737;28;20107;-79
2022/03/29 02:32:10;;;;;;;23.05;14.75;;;7.10;99.90;;;;;;5066883;28;20500;-81
2022/03/29 02:34:35;;;;;;;26.13;15.55;;;7.00;99.90;;;;;;5067178;28;20406;-82
2022/03/29 02:37:01;;;;;;;19.67;16.00;;;7.10;99.90;;;;;;5064808;28;20084;-81
2022/03/29 02:39:27;;;;;;;23.33;15.65;;;7.10;99.90;;;;;;5066235;28;20040;-81
2022/03/29 02:41:52;;;;;;;19.48;15.52;;;7.10;99.90;;;;;;5065398;28;20047;-81
2022/03/29 02:44:18;;;;;;;24.27;15.70;;;7.10;99.90;;;;;;5065530;28;20048;-80
2022/03/29 02:46:44;;;;;;;24.60;15.75;;;7.10;99.90;;;;;;5067060;28;20385;-81
2022/03/29 02:49:10;;;;;;;23.75;15.80;;;7.10;99.90;;;;;;5065786;28;20395;-81
2022/03/29 02:51:36;;;;;;;24.20;16.38;;;7.10;99.90;;;;;;5065184;28;20097;-81
2022/03/29 02:54:01;;;;;;;23.33;18.13;;;7.10;99.90;;;;;;5068002;28;20344;-81
2022/03/29 02:56:28;;;;;;;27.27;17.40;;;7.10;99.90;;;;;;5069844;28;20053;-80
2022/03/29 02:58:54;;;;;;;24.42;17.98;;;7.10;99.90;;;;;;5068638;28;20037;-81
2022/03/29 03:01:19;;;;;;;29.70;17.42;;;7.10;99.90;;;;;;5070216;28;20491;-80
2022/03/29 03:03:45;;;;;;;30.10;17.77;;;7.10;99.90;;;;;;5068706;28;20052;-81
2022/03/29 03:06:11;;;;;;;28.25;17.58;;;7.10;99.90;;;;;;5070095;28;20052;-82
2022/03/29 03:08:37;;;;;;;28.88;18.42;;;7.10;99.90;;;;;;5069806;28;20041;-82
2022/03/29 03:11:03;;;;;;;32.05;19.35;;;7.10;99.90;;;;;;5068167;28;20043;-79
2022/03/29 03:13:29;;;;;;;29.75;18.98;;;7.10;99.90;;;;;;5062482;28;20036;-80
2022/03/29 03:15:55;;;;;;;28.23;18.30;;;7.10;99.90;;;;;;5080945;28;20461;-80
2022/03/29 03:18:20;;;;;;;25.45;17.75;;;7.20;99.90;;;;;;5069552;28;20045;-82
2022/03/29 03:20:46;;;;;;;30.10;19.27;;;6.80;99.90;;;;;;5069713;28;20131;-81
2022/03/29 03:23:12;;;;;;;31.23;18.50;;;7.00;99.90;;;;;;5068608;28;20491;-81
2022/03/29 03:25:38;;;;;;;29.67;19.00;;;7.00;99.90;;;;;;5068532;28;20451;-81
2022/03/29 03:28:04;;;;;;;30.58;19.48;;;8.90;99.90;;;;;;5070125;28;20044;-82
2022/03/29 03:30:30;;;;;;;28.55;18.88;;;7.50;99.90;;;;;;5062240;28;20076;-80
2022/03/29 03:32:56;;;;;;;27.75;17.95;;;7.10;99.90;;;;;;5048101;28;20086;-81
2022/03/29 03:35:22;;;;;;;28.33;19.98;;;7.00;99.90;;;;;;5068744;28;20059;-80
2022/03/29 03:37:48;;;;;;;26.67;18.70;;;7.00;99.90;;;;;;5069187;28;20045;-80
2022/03/29 03:40:14;;;;;;;28.95;18.23;;;7.00;99.90;;;;;;5051571;28;20049;-81
2022/03/29 03:42:40;;;;;;;30.23;18.17;;;7.00;99.90;;;;;;5069886;28;20380;-80
2022/03/29 03:45:07;;;;;;;31.55;18.80;;;6.90;99.90;;;;;;5068637;28;20056;-80
2022/03/29 03:47:33;;;;;;;29.73;18.05;;;7.00;99.90;;;;;;5066666;28;20040;-83
2022/03/29 03:49:59;;;;;;;33.33;19.02;;;6.80;99.90;;;;;;5068282;28;20066;-81
2022/03/29 03:52:25;;;;;;;26.48;17.75;;;7.10;99.90;;;;;;5051147;28;20044;-81
2022/03/29 03:54:51;;;;;;;27.40;18.35;;;7.10;99.90;;;;;;5098599;28;20056;-81
2022/03/29 03:57:18;;;;;;;35.75;19.40;;;7.30;99.90;;;;;;5050963;28;20105;-81
2022/03/29 03:59:48;;;;;;;28.25;18.42;;;7.00;99.90;;;;;;5068278;28;20044;-81
2022/03/29 04:02:17;;;;;;;26.05;18.23;;;7.30;99.90;;;;;;5068889;28;20119;-82
2022/03/29 04:04:43;;;;;;;29.55;19.20;;;7.00;99.90;;;;;;5051497;28;20045;-81
2022/03/29 04:07:08;;;;;;;31.08;18.58;;;6.60;99.90;;;;;;5050668;28;20225;-81
2022/03/29 04:09:35;;;;;;;27.38;18.25;;;6.90;99.90;;;;;;5051961;28;20040;-81
2022/03/29 04:12:05;;;;;;;26.70;17.73;;;7.00;99.90;;;;;;5068255;28;20492;-81
2022/03/29 04:14:30;;;;;;;35.13;19.27;;;7.00;99.90;;;;;;5067046;28;20055;-81
2022/03/29 04:16:56;;;;;;;26.23;18.45;;;6.90;99.90;;;;;;5068433;28;20040;-81
2022/03/29 04:19:22;;;;;;;29.00;19.15;;;7.00;99.90;;;;;;5068772;28;20048;-81
2022/03/29 04:21:47;;;;;;;31.55;18.80;;;7.00;99.90;;;;;;5067266;28;20139;-80
2022/03/29 04:24:14;;;;;;;32.38;20.33;;;7.10;99.90;;;;;;5069551;28;20036;-81
2022/03/29 04:26:40;;;;;;;25.52;18.08;;;9.20;99.90;;;;;;5068610;28;20052;-81
2022/03/29 04:29:05;;;;;;;25.98;17.95;;;7.10;99.90;;;;;;5067213;28;20391;-82
2022/03/29 04:31:31;;;;;;;25.20;16.70;;;6.80;99.90;;;;;;5050908;28;20049;-80
2022/03/29 04:34:01;;;;;;;27.17;18.00;;;6.70;99.90;;;;;;5068820;28;20578;-80
2022/03/29 04:36:27;;;;;;;28.90;17.90;;;6.80;99.90;;;;;;5067865;28;20055;-80
2022/03/29 04:38:53;;;;;;;26.52;17.77;;;7.00;99.90;;;;;;5052742;28;20128;-81
2022/03/29 04:41:19;;;;;;;56.15;37.33;;;7.00;99.90;;;;;;5067768;28;20048;-80
2022/03/29 04:43:45;;;;;;;39.20;22.95;;;7.00;99.90;;;;;;5068166;28;20074;-81
2022/03/29 04:46:11;;;;;;;32.50;19.75;;;7.00;99.90;;;;;;5067645;28;20049;-80
2022/03/29 04:48:36;;;;;;;33.50;19.83;;;7.00;99.90;;;;;;5051501;28;20044;-82
2022/03/29 04:51:02;;;;;;;31.05;18.38;;;6.90;99.90;;;;;;5066241;28;20036;-80
2022/03/29 04:53:28;;;;;;;24.55;17.45;;;7.00;99.90;;;;;;5051242;28;20048;-81
2022/03/29 04:55:55;;;;;;;31.52;19.85;;;6.90;99.90;;;;;;5068063;28;20094;-81
2022/03/29 04:58:21;;;;;;;30.25;18.75;;;6.90;99.90;;;;;;5066726;28;20397;-81
2022/03/29 05:00:47;;;;;;;30.67;18.58;;;6.90;99.90;;;;;;5068663;28;20044;-80
2022/03/29 05:03:12;;;;;;;29.38;18.92;;;7.00;99.90;;;;;;5066949;28;20066;-80
2022/03/29 05:05:38;;;;;;;29.70;19.17;;;7.00;99.90;;;;;;5068951;28;20424;-81
2022/03/29 05:08:04;;;;;;;27.80;18.85;;;7.00;99.90;;;;;;5068368;28;20049;-81
2022/03/29 05:10:30;;;;;;;30.92;19.98;;;7.00;99.90;;;;;;5067988;28;20678;-80
2022/03/29 05:12:56;;;;;;;31.30;20.20;;;8.50;99.90;;;;;;5067136;28;20036;-81
2022/03/29 05:15:22;;;;;;;30.25;19.90;;;6.90;99.90;;;;;;5066893;28;20087;-81
2022/03/29 05:17:49;;;;;;;35.83;21.23;;;7.00;99.90;;;;;;5066608;28;20466;-80
2022/03/29 05:20:16;;;;;;;34.65;21.60;;;7.00;99.90;;;;;;5050483;28;20495;-80
2022/03/29 05:22:47;;;;;;;31.70;20.88;;;6.90;99.90;;;;;;5067034;28;20044;-80
2022/03/29 05:25:14;;;;;;;33.95;21.40;;;6.90;99.90;;;;;;5068191;28;20131;-78
2022/03/29 05:27:41;;;;;;;32.20;20.17;;;6.90;99.90;;;;;;5059627;28;20028;-79
2022/03/29 05:30:08;;;;;;;36.35;21.65;;;6.90;99.90;;;;;;5066826;28;20052;-80
2022/03/29 05:32:33;;;;;;;31.98;20.38;;;7.00;99.90;;;;;;5066181;28;20071;-79
2022/03/29 05:34:59;;;;;;;32.78;22.67;;;6.90;99.90;;;;;;5066635;28;20096;-78
2022/03/29 05:37:24;;;;;;;30.13;20.35;;;7.00;99.90;;;;;;5067063;28;20033;-79
2022/03/29 05:39:50;;;;;;;33.30;21.25;;;7.00;99.90;;;;;;5049343;28;20468;-79
2022/03/29 05:42:16;;;;;;;26.85;19.80;;;7.00;99.90;;;;;;5049996;28;20102;-78
2022/03/29 05:44:43;;;;;;;33.30;21.13;;;7.00;99.90;;;;;;5067173;28;20036;-80
2022/03/29 05:49:53;;;;;;;34.95;22.45;;;7.00;99.90;;;;;;5063662;28;20098;-78
2022/03/29 05:52:21;;;;;;;38.08;24.55;;;7.00;99.90;;;;;;5067488;28;20040;-78
2022/03/29 05:54:47;;;;;;;38.53;23.60;;;7.00;99.90;;;;;;5049918;28;20051;-80
2022/03/29 05:57:16;;;;;;;29.98;19.60;;;7.00;99.90;;;;;;5068000;28;20040;-79
2022/03/29 05:59:43;;;;;;;28.55;20.30;;;7.00;99.90;;;;;;5058291;28;20055;-80
2022/03/29 06:02:09;;;;;;;31.20;21.02;;;7.00;99.90;;;;;;5066903;28;20078;-77
2022/03/29 06:04:35;;;;;;;31.42;21.88;;;7.00;99.90;;;;;;5067926;28;20072;-79
2022/03/29 06:07:04;;;;;;;32.00;21.45;;;7.00;99.90;;;;;;5066175;28;20116;-81
2022/03/29 06:09:33;;;;;;;36.20;21.75;;;7.00;99.90;;;;;;5068146;28;20488;-82
2022/03/29 06:11:59;;;;;;;33.75;21.52;;;7.00;99.90;;;;;;5067523;28;20040;-81
2022/03/29 06:14:25;;;;;;;36.92;21.63;;;7.00;99.90;;;;;;5067155;28;20123;-79
2022/03/29 06:16:51;;;;;;;35.88;22.85;;;7.10;99.90;;;;;;5066971;28;20461;-80
2022/03/29 06:19:16;;;;;;;32.05;21.38;;;7.00;99.90;;;;;;5066554;28;20656;-81
2022/03/29 06:21:43;;;;;;;30.27;20.45;;;7.00;99.90;;;;;;5065836;28;20309;-78
2022/03/29 06:24:10;;;;;;;41.03;23.13;;;7.50;99.90;;;;;;5066719;28;20052;-78
2022/03/29 06:26:39;;;;;;;39.85;21.92;;;7.00;99.90;;;;;;5066165;28;20028;-78
2022/03/29 06:29:09;;;;;;;35.03;22.27;;;7.00;99.90;;;;;;5051776;28;20044;-80
2022/03/29 06:31:35;;;;;;;40.72;24.70;;;6.90;99.90;;;;;;4367725;28;10000799;-79
2022/03/29 06:34:01;;;;;;;43.28;25.83;;;7.70;99.90;;;;;;5067231;28;20044;-78
2022/03/29 06:36:27;;;;;;;40.10;22.80;;;6.90;99.90;;;;;;5050721;28;20554;-79
2022/03/29 06:38:53;;;;;;;34.92;21.98;;;6.90;99.90;;;;;;5051209;28;20033;-78
2022/03/29 06:41:19;;;;;;;37.47;22.85;;;6.90;99.90;;;;;;5068788;28;20078;-79
2022/03/29 06:43:45;;;;;;;39.25;23.17;;;6.90;99.90;;;;;;5068094;28;20105;-77
2022/03/29 06:46:11;;;;;;;33.55;21.52;;;6.60;99.90;;;;;;5050199;28;20029;-79
2022/03/29 06:48:37;;;;;;;36.13;22.75;;;7.00;99.90;;;;;;5070738;28;20442;-80
2022/03/29 06:51:03;;;;;;;36.70;21.90;;;7.10;99.90;;;;;;5069439;28;20475;-80
2022/03/29 06:53:29;;;;;;;37.33;22.88;;;7.00;99.90;;;;;;5069197;28;20097;-80
2022/03/29 06:55:55;;;;;;;39.55;22.73;;;7.10;99.90;;;;;;5078483;28;20123;-79
2022/03/29 06:58:20;;;;;;;36.15;21.85;;;7.10;99.90;;;;;;5069594;28;20037;-79
2022/03/29 07:00:47;;;;;;;44.92;28.00;;;7.00;99.90;;;;;;5060095;28;20053;-78
2022/03/29 07:03:12;;;;;;;30.70;21.98;;;7.00;99.90;;;;;;5065672;28;20041;-80
2022/03/29 07:05:42;;;;;;;33.65;22.50;;;7.00;99.90;;;;;;5071435;28;20044;-78
2022/03/29 07:08:10;;;;;;;33.38;22.33;;;6.70;99.90;;;;;;5071426;28;20039;-79
2022/03/29 07:13:22;;;;;;;35.42;21.10;;;7.10;99.90;;;;;;5100769;28;20043;-78
2022/03/29 07:15:50;;;;;;;36.22;22.58;;;7.10;99.90;;;;;;5054824;28;20077;-79
2022/03/29 07:18:16;;;;;;;34.10;21.70;;;7.10;99.90;;;;;;5070960;28;20127;-81
2022/03/29 07:20:41;;;;;;;40.83;23.17;;;6.90;99.90;;;;;;5054708;28;20143;-79
2022/03/29 07:23:07;;;;;;;36.38;22.23;;;6.90;99.90;;;;;;5054322;28;20036;-78
2022/03/29 07:25:33;;;;;;;35.10;21.88;;;7.10;99.90;;;;;;5071014;28;20048;-81
2022/03/29 07:27:59;;;;;;;35.72;21.65;;;7.20;99.90;;;;;;5072315;28;20041;-80
2022/03/29 07:30:25;;;;;;;37.95;21.48;;;7.10;99.90;;;;;;5054505;28;20037;-82
2022/03/29 07:33:00;;;;;;;35.60;21.52;;;7.20;99.90;;;;;;5071111;28;20093;-80
2022/03/29 07:35:28;;;;;;;39.08;22.58;;;7.20;99.90;;;;;;5072624;28;20056;-79
2022/03/29 07:37:54;;;;;;;34.22;20.95;;;7.20;99.90;;;;;;5064486;28;20040;-78
2022/03/29 07:40:24;;;;;;;33.53;20.67;;;8.70;99.90;;;;;;5071964;28;20045;-81
2022/03/29 07:42:50;;;;;;;41.40;22.05;;;8.40;99.90;;;;;;5071620;28;20048;-79
2022/03/29 07:45:17;;;;;;;35.65;22.60;;;7.20;99.90;;;;;;5071186;28;20036;-79
2022/03/29 07:47:44;;;;;;;39.20;21.27;;;7.30;99.90;;;;;;5072482;28;20056;-82
2022/03/29 07:50:11;;;;;;;37.83;21.77;;;7.30;99.90;;;;;;5070879;28;20040;-80
2022/03/29 07:52:39;;;;;;;40.83;20.92;;;7.20;99.90;;;;;;5071248;28;20506;-81
2022/03/29 07:55:06;;;;;;;36.10;21.00;;;7.00;99.90;;;;;;5070028;28;20385;-80
2022/03/29 07:57:33;;;;;;;37.28;21.20;;;7.30;99.90;;;;;;5072549;28;20441;-81
2022/03/29 07:59:59;;;;;;;35.67;20.45;;;7.30;99.90;;;;;;5069901;28;20042;-80
2022/03/29 08:02:25;;;;;;;40.60;21.98;;;8.10;99.90;;;;;;5071834;28;20396;-80
2022/03/29 08:04:50;;;;;;;36.42;19.42;;;7.40;99.90;;;;;;5071683;28;20074;-78
2022/03/29 08:07:16;;;;;;;36.50;21.77;;;7.40;99.90;;;;;;5069825;28;20572;-78
2022/03/29 08:09:42;;;;;;;37.05;20.95;;;7.30;99.90;;;;;;5071743;28;20083;-80
2022/03/29 08:12:08;;;;;;;39.58;22.33;;;6.90;99.90;;;;;;5071141;28;20048;-81
2022/03/29 08:14:34;;;;;;;38.60;21.20;;;7.40;99.90;;;;;;5070799;28;20127;-80
2022/03/29 08:16:59;;;;;;;38.28;22.08;;;7.40;99.90;;;;;;5069640;28;20052;-78
2022/03/29 08:19:25;;;;;;;37.92;21.50;;;7.40;99.90;;;;;;5070475;28;20075;-79
2022/03/29 08:21:51;;;;;;;36.97;20.60;;;7.40;99.90;;;;;;5069946;28;20053;-79
2022/03/29 08:24:21;;;;;;;41.47;21.77;;;7.40;99.90;;;;;;5071481;28;20447;-79
2022/03/29 08:26:48;;;;;;;256.70;188.00;;;7.40;99.90;;;;;;5071367;28;20052;-79
2022/03/29 08:29:16;;;;;;;57.25;36.97;;;8.80;99.90;;;;;;5069838;28;20075;-80
2022/03/29 08:31:43;;;;;;;34.63;21.83;;;7.40;99.90;;;;;;5069752;28;20066;-81
2022/03/29 08:34:08;;;;;;;37.70;19.55;;;8.60;99.90;;;;;;5069181;28;20063;-79
2022/03/29 08:36:36;;;;;;;37.88;20.20;;;7.60;99.90;;;;;;5070237;28;20480;-80
2022/03/29 08:39:03;;;;;;;37.10;19.88;;;7.70;99.90;;;;;;5071195;28;20045;-80
2022/03/29 08:41:36;;;;;;;34.22;18.92;;;7.70;99.90;;;;;;5070468;28;20227;-79
2022/03/29 08:44:02;;;;;;;36.42;19.17;;;7.70;99.90;;;;;;5061262;28;20106;-80
2022/03/29 08:46:38;;;;;;;38.05;20.17;;;7.80;99.90;;;;;;5071029;28;20036;-82
2022/03/29 08:49:10;;;;;;;45.35;27.70;;;7.70;99.90;;;;;;5095866;28;20100;-82
2022/03/29 08:51:39;;;;;;;48.10;25.73;;;7.90;99.90;;;;;;5069703;28;20033;-81
2022/03/29 08:54:06;;;;;;;36.55;20.27;;;8.00;99.90;;;;;;5052831;28;20033;-81
2022/03/29 08:56:32;;;;;;;41.72;21.63;;;8.10;99.90;;;;;;5069586;28;20400;-80
2022/03/29 08:58:58;;;;;;;31.83;20.15;;;9.60;99.90;;;;;;5068947;28;20037;-79
2022/03/29 09:01:23;;;;;;;37.63;20.85;;;8.10;99.90;;;;;;5069055;28;20078;-82
2022/03/29 09:04:03;;;;;;;34.10;19.73;;;8.20;99.90;;;;;;5051604;28;20089;-80
2022/03/29 09:06:29;;;;;;;32.08;18.15;;;8.20;99.90;;;;;;5071304;28;20053;-80
2022/03/29 09:08:54;;;;;;;34.75;19.90;;;8.20;99.90;;;;;;5069584;28;20063;-79
2022/03/29 09:11:21;;;;;;;30.45;18.23;;;8.30;99.90;;;;;;5068221;28;20037;-80
2022/03/29 09:14:00;;;;;;;32.80;21.05;;;8.00;99.90;;;;;;5070521;28;20106;-78
2022/03/29 09:16:29;;;;;;;35.85;19.48;;;8.30;99.90;;;;;;5069994;28;20044;-80
2022/03/29 09:18:55;;;;;;;32.85;20.00;;;8.30;99.90;;;;;;5070626;28;20118;-81
2022/03/29 09:21:21;;;;;;;34.13;18.70;;;8.40;99.90;;;;;;5069055;28;20032;-81
2022/03/29 09:24:07;;;;;;;33.92;18.25;;;8.40;99.90;;;;;;5068208;28;20476;-80
2022/03/29 09:26:33;;;;;;;41.25;21.00;;;8.40;99.90;;;;;;5098742;28;20123;-82
2022/03/29 09:29:00;;;;;;;36.33;16.85;;;9.60;99.90;;;;;;5052260;28;20135;-80
2022/03/29 09:31:27;;;;;;;36.38;15.93;;;8.40;99.90;;;;;;5069826;28;20044;-78
2022/03/29 09:34:17;;;;;;;26.10;12.50;;;8.60;99.90;;;;;;5051503;28;20099;-81
2022/03/29 09:36:46;;;;;;;27.08;12.60;;;8.60;99.90;;;;;;5053004;28;20052;-79
2022/03/29 09:39:36;;;;;;;48.13;23.02;;;8.30;99.90;;;;;;5067915;28;20040;-79
2022/03/29 09:42:07;;;;;;;31.40;14.85;;;8.70;99.90;;;;;;5059458;28;20083;-82
2022/03/29 09:44:42;;;;;;;26.25;12.57;;;8.70;99.90;;;;;;5052620;28;20060;-80
2022/03/29 09:47:10;;;;;;;28.50;12.85;;;8.80;99.90;;;;;;5043268;28;20045;-80
2022/03/29 09:50:01;;;;;;;32.97;13.90;;;8.80;99.90;;;;;;5070698;28;20142;-81
2022/03/29 09:52:37;;;;;;;24.23;12.82;;;8.90;99.90;;;;;;5061379;28;20393;-82
2022/03/29 09:55:13;;;;;;;26.02;13.57;;;8.90;99.90;;;;;;5053822;28;20384;-81
2022/03/29 09:57:46;;;;;;;32.67;14.13;;;9.00;99.90;;;;;;5050165;28;20048;-78
2022/03/29 10:00:16;;;;;;;27.15;11.75;;;9.00;99.90;;;;;;5063362;28;20400;-82
2022/03/29 10:02:45;;;;;;;29.27;12.88;;;9.10;99.90;;;;;;5093141;28;20069;-80
2022/03/29 10:05:11;;;;;;;26.65;11.98;;;9.90;99.90;;;;;;5055993;28;20043;-79
2022/03/29 10:09:25;;;;;;;26.13;11.93;;;9.20;99.90;;;;;;5073775;28;20052;-82
2022/03/29 10:10:39;;;;;;;27.27;11.63;;;9.20;99.90;;;;;;5073817;28;20127;-79
2022/03/29 10:13:05;;;;;;;34.60;12.60;;;9.30;99.90;;;;;;5071537;28;20123;-79
2022/03/29 10:15:31;;;;;;;34.03;11.93;;;9.30;99.90;;;;;;5072954;28;20127;-80
2022/03/29 10:17:56;;;;;;;28.58;10.95;;;9.20;99.90;;;;;;5072486;28;20097;-79
2022/03/29 10:20:23;;;;;;;24.48;11.13;;;9.40;99.90;;;;;;5055380;28;20476;-82
2022/03/29 10:22:50;;;;;;;29.77;11.10;;;10.70;99.90;;;;;;5055444;28;20135;-79
2022/03/29 10:25:15;;;;;;;29.38;11.35;;;9.50;99.90;;;;;;5071532;28;20066;-80
2022/03/29 10:27:42;;;;;;;56.22;25.83;;;9.60;99.90;;;;;;5068502;28;20112;-78
2022/03/29 10:30:08;;;;;;;31.60;11.35;;;9.60;99.90;;;;;;5072023;28;20051;-78
2022/03/29 10:32:34;;;;;;;31.45;11.15;;;9.60;99.90;;;;;;5072294;28;20047;-81
2022/03/29 10:35:11;;;;;;;23.08;9.32;;;9.50;99.90;;;;;;5070568;28;20065;-82
2022/03/29 10:37:52;;;;;;;28.38;10.63;;;9.50;99.90;;;;;;5068970;28;20041;-79
2022/03/29 10:40:41;;;;;;;25.05;10.70;;;9.60;99.90;;;;;;5079277;28;20067;-78
2022/03/29 10:43:33;;;;;;;32.90;14.20;;;9.60;99.90;;;;;;4362689;28;10001626;-81
2022/03/29 10:45:59;;;;;;;28.55;9.45;;;9.60;99.90;;;;;;5064510;28;20052;-79
2022/03/29 10:48:24;;;;;;;24.73;10.27;;;9.70;99.90;;;;;;5067545;28;20051;-78
2022/03/29 10:50:57;;;;;;;28.70;11.77;;;9.70;99.90;;;;;;5068559;28;20127;-78
2022/03/29 10:53:29;;;;;;;25.63;9.80;;;9.70;99.90;;;;;;5062105;28;20043;-81
2022/03/29 10:56:16;;;;;;;25.48;10.95;;;9.60;99.90;;;;;;5050536;28;20166;-78
2022/03/29 10:59:00;;;;;;;25.48;9.40;;;11.00;99.90;;;;;;5065131;28;20051;-78
2022/03/29 11:01:26;;;;;;;26.77;10.45;;;9.80;99.90;;;;;;5061169;28;20044;-79
2022/03/29 11:04:26;;;;;;;31.80;10.55;;;9.90;99.90;;;;;;5066479;28;20055;-78
2022/03/29 11:07:11;;;;;;;21.17;9.25;;;10.80;99.90;;;;;;5045319;28;20075;-79
2022/03/29 11:09:38;;;;;;;30.27;10.82;;;10.00;99.90;;;;;;5068776;28;20458;-80
2022/03/29 11:12:04;;;;;;;23.70;8.80;;;10.00;99.90;;;;;;5068257;28;20401;-79
2022/03/29 11:14:31;;;;;;;28.08;9.93;;;10.00;99.90;;;;;;5068815;28;20037;-76
2022/03/29 11:17:11;;;;;;;34.00;9.43;;;11.70;99.90;;;;;;5066713;28;20115;-80
2022/03/29 11:19:46;;;;;;;26.88;9.13;;;9.70;99.90;;;;;;5045701;28;20488;-79
2022/03/29 11:22:32;;;;;;;28.90;8.38;;;10.10;99.90;;;;;;5071863;28;20086;-83
2022/03/29 11:25:06;;;;;;;27.55;9.30;;;10.10;99.90;;;;;;5070235;28;20098;-79
2022/03/29 11:27:34;;;;;;;24.60;8.40;;;10.20;99.90;;;;;;5055276;28;20135;-79
2022/03/29 11:30:02;;;;;;;44.03;21.27;;;9.90;99.90;;;;;;5067986;28;20059;-79
2022/03/29 11:32:29;;;;;;;22.00;8.10;;;11.30;99.90;;;;;;5038182;28;20128;-82
2022/03/29 11:34:58;;;;;;;19.50;8.90;;;10.20;99.90;;;;;;5071361;28;20135;-83
2022/03/29 11:37:37;;;;;;;22.92;8.73;;;10.20;99.90;;;;;;5070928;28;20090;-79
2022/03/29 11:40:04;;;;;;;23.65;9.52;;;11.30;99.90;;;;;;5053326;28;20048;-78
2022/03/29 11:42:51;;;;;;;27.42;8.15;;;10.20;99.90;;;;;;5054401;28;20127;-78
2022/03/29 11:45:18;;;;;;;24.73;9.18;;;10.30;99.90;;;;;;5053221;28;20048;-83
2022/03/29 11:47:54;;;;;;;23.02;8.45;;;10.30;99.90;;;;;;5037874;28;20043;-77
2022/03/29 11:50:37;;;;;;;21.48;9.15;;;9.90;99.90;;;;;;5063793;28;20052;-81
2022/03/29 11:53:21;;;;;;;28.58;9.00;;;10.40;99.90;;;;;;5069571;28;20047;-83
2022/03/29 11:56:04;;;;;;;22.25;8.65;;;10.20;99.90;;;;;;5053422;28;20407;-79
2022/03/29 11:58:31;;;;;;;27.55;10.00;;;10.50;99.90;;;;;;5063782;28;20071;-78
2022/03/29 12:01:09;;;;;;;23.45;8.43;;;10.40;99.90;;;;;;5053269;28;20449;-78
2022/03/29 12:03:43;;;;;;;18.52;7.10;;;10.30;99.90;;;;;;5070216;28;20040;-82
2022/03/29 12:06:15;;;;;;;19.40;7.95;;;10.40;99.90;;;;;;5052701;28;20041;-83
2022/03/29 12:08:49;;;;;;;25.10;9.35;;;11.40;99.90;;;;;;5071017;28;20041;-78
2022/03/29 12:11:18;;;;;;;;;;;10.20;99.90;;;;;;5070557;28;20396;-83
2022/03/29 12:13:46;;;;;;;22.63;7.72;;;9.90;99.90;;;;;;5065708;28;19959;-77
2022/03/29 12:16:23;;;;;;;23.35;8.75;;;9.90;99.90;;;;;;5067917;28;20056;-84
2022/03/29 12:18:50;;;;;;;19.17;8.32;;;11.20;99.90;;;;;;5049116;28;20102;-83
2022/03/29 12:21:21;;;;;;;21.55;9.02;;;10.20;99.90;;;;;;5062929;28;20037;-82
2022/03/29 12:23:48;;;;;;;23.75;9.35;;;10.20;99.90;;;;;;5070510;28;20083;-79
2022/03/29 12:26:18;;;;;;;22.85;8.95;;;10.00;99.90;;;;;;5048986;28;20029;-79
2022/03/29 12:28:45;;;;;;;19.70;8.18;;;10.30;99.90;;;;;;5070101;28;20036;-80
2022/03/29 12:31:16;;;;;;;24.40;8.52;;;10.40;99.90;;;;;;5047609;28;20056;-79
2022/03/29 12:33:43;;;;;;;27.27;8.40;;;10.90;99.90;;;;;;5066899;28;20048;-79
2022/03/29 12:36:12;;;;;;;23.10;8.90;;;10.50;99.90;;;;;;5071737;28;20111;-80
2022/03/29 12:38:40;;;;;;;18.20;7.15;;;10.70;99.90;;;;;;5066240;28;20063;-80
2022/03/29 12:41:07;;;;;;;23.75;9.05;;;10.90;99.90;;;;;;5070503;28;20044;-83
2022/03/29 12:43:35;;;;;;;22.60;11.18;;;11.10;99.90;;;;;;5070323;28;20101;-81
2022/03/29 12:46:02;;;;;;;20.10;9.43;;;11.30;99.90;;;;;;5045995;28;20123;-81
2022/03/29 12:48:28;;;;;;;19.58;8.18;;;11.40;99.90;;;;;;5091786;28;20045;-79
2022/03/29 12:50:54;;;;;;;19.10;8.48;;;11.40;99.90;;;;;;5062584;28;20036;-83
2022/03/29 12:53:19;;;;;;;19.08;8.23;;;11.50;99.90;;;;;;5065352;28;20619;-81